Time;durP1;ratioP1;P1;durP2;ratioP2;P2;SDS_P1;SDS_P2;PMS_P1;PMS_P2;Temp;Humidity;BMP_temperature;BMP_pressure;BME280_temperature;BME280_humidity;BME280_pressure;Samples;Min_cycle;Max_cycle;Signal;HPM_P1;HPM_P2
2024/04/12 00:01:01;;;;;;;13.75;2.95;;;;;;;;;;2223115;26;21065;-66
2024/04/12 00:02:20;;;;;;;11.10;2.80;;;;;;;;;;2222978;26;20015;-62
2024/04/12 00:03:41;;;;;;;11.80;3.00;;;;;;;;;;2221929;26;20012;-63
2024/04/12 00:05:02;;;;;;;10.18;2.70;;;;;;;;;;2223651;26;20316;-61
2024/04/12 00:06:25;;;;;;;13.05;2.20;;;;;;;;;;2220885;26;20715;-61
2024/04/12 00:07:44;;;;;;;9.30;2.63;;;;;;;;;;2227842;26;20514;-63
2024/04/12 00:09:17;;;;;;;10.52;2.47;;;;;;;;;;2223383;26;20473;-63
2024/04/12 00:10:37;;;;;;;13.98;2.40;;;;;;;;;;2222594;26;20008;-62
2024/04/12 00:12:00;;;;;;;14.10;2.78;;;;;;;;;;2220719;26;20011;-62
2024/04/12 00:13:20;;;;;;;12.95;3.47;;;;;;;;;;2221540;26;20007;-61
2024/04/12 00:14:43;;;;;;;14.75;3.20;;;;;;;;;;2219899;26;20047;-63
2024/04/12 00:16:08;;;;;;;8.05;2.38;;;;;;;;;;2221491;26;20632;-63
2024/04/12 00:17:31;;;;;;;9.90;2.40;;;;;;;;;;2221632;26;20007;-63
2024/04/12 00:19:12;;;;;;;9.80;2.33;;;;;;;;;;2222903;26;20025;-64
2024/04/12 00:20:29;;;;;;;10.63;2.08;;;;;;;;;;2222733;26;20004;-62
2024/04/12 00:21:52;;;;;;;10.70;2.20;;;;;;;;;;2222801;26;20024;-63
2024/04/12 00:23:12;;;;;;;11.75;2.20;;;;;;;;;;2221380;26;20039;-61
2024/04/12 00:24:36;;;;;;;7.65;1.63;;;;;;;;;;2218793;26;21000;-62
2024/04/12 00:25:56;;;;;;;10.13;2.05;;;;;;;;;;2221363;26;20794;-62
2024/04/12 00:27:15;;;;;;;12.80;2.55;;;;;;;;;;2224569;26;20012;-63
2024/04/12 00:28:35;;;;;;;8.77;1.98;;;;;;;;;;2222928;26;20007;-62
2024/04/12 00:29:54;;;;;;;10.15;2.45;;;;;;;;;;2221507;26;20003;-63
2024/04/12 00:31:16;;;;;;;11.48;2.58;;;;;;;;;;2220939;26;20038;-63
2024/04/12 00:32:35;;;;;;;8.00;2.38;;;;;;;;;;2219069;26;20111;-61
2024/04/12 00:34:04;;;;;;;9.65;2.22;;;;;;;;;;2221925;26;20015;-61
2024/04/12 00:35:34;;;;;;;12.85;2.20;;;;;;;;;;2222723;26;20027;-60
2024/04/12 00:36:54;;;;;;;8.18;2.00;;;;;;;;;;2221530;26;20008;-61
2024/04/12 00:38:16;;;;;;;12.27;2.47;;;;;;;;;;2219879;26;20019;-68
2024/04/12 00:39:35;;;;;;;10.13;2.65;;;;;;;;;;2221920;26;20003;-63
2024/04/12 00:40:54;;;;;;;15.35;2.40;;;;;;;;;;2222811;26;20476;-61
2024/04/12 00:42:14;;;;;;;8.60;2.20;;;;;;;;;;2221188;26;20066;-64
2024/04/12 00:43:36;;;;;;;13.07;2.65;;;;;;;;;;2220968;26;20387;-62
2024/04/12 00:44:57;;;;;;;9.98;2.33;;;;;;;;;;2221583;26;20008;-63
2024/04/12 00:46:19;;;;;;;9.02;2.30;;;;;;;;;;2223736;26;20367;-63
2024/04/12 00:47:41;;;;;;;12.40;1.98;;;;;;;;;;2222623;26;20000;-63
2024/04/12 00:49:06;;;;;;;14.65;2.67;;;;;;;;;;2221707;26;20836;-64
2024/04/12 00:50:27;;;;;;;10.43;2.85;;;;;;;;;;2221270;26;20465;-62
2024/04/12 00:51:50;;;;;;;12.63;2.53;;;;;;;;;;2222269;26;20477;-63
2024/04/12 00:53:28;;;;;;;9.93;1.58;;;;;;;;;;2221430;26;20023;-64
2024/04/12 00:54:47;;;;;;;6.97;1.88;;;;;;;;;;2221632;26;20012;-61
2024/04/12 00:56:12;;;;;;;12.02;2.33;;;;;;;;;;2220569;26;20004;-64
2024/04/12 00:57:38;;;;;;;10.25;2.00;;;;;;;;;;2221739;26;20011;-61
2024/04/12 00:58:59;;;;;;;12.82;3.10;;;;;;;;;;2226218;26;20071;-64
2024/04/12 01:00:28;;;;;;;9.57;2.15;;;;;;;;;;2218679;26;20357;-64
2024/04/12 01:01:47;;;;;;;14.02;2.72;;;;;;;;;;2220611;26;20728;-63
2024/04/12 01:03:06;;;;;;;9.15;1.55;;;;;;;;;;2220322;26;20016;-61
2024/04/12 01:04:25;;;;;;;14.27;2.83;;;;;;;;;;2220736;26;20004;-64
2024/04/12 01:05:46;;;;;;;16.73;2.30;;;;;;;;;;2226736;26;19999;-64
2024/04/12 01:07:06;;;;;;;12.35;2.50;;;;;;;;;;2221642;26;20004;-64
2024/04/12 01:08:29;;;;;;;12.85;2.00;;;;;;;;;;2222595;26;20011;-61
2024/04/12 01:09:48;;;;;;;14.95;2.78;;;;;;;;;;2222936;26;20011;-61
2024/04/12 01:11:08;;;;;;;17.08;3.20;;;;;;;;;;2222044;26;20016;-61
2024/04/12 01:12:27;;;;;;;11.25;2.20;;;;;;;;;;2221161;26;20461;-63
2024/04/12 01:13:49;;;;;;;10.10;1.58;;;;;;;;;;2223400;26;20014;-61
2024/04/12 01:15:08;;;;;;;12.60;1.63;;;;;;;;;;2223423;26;20019;-62
2024/04/12 01:16:27;;;;;;;12.65;2.60;;;;;;;;;;2223693;26;20011;-62
2024/04/12 01:17:47;;;;;;;12.65;2.03;;;;;;;;;;2220677;26;20026;-62
2024/04/12 01:19:11;;;;;;;11.20;2.63;;;;;;;;;;2224612;26;20040;-62
2024/04/12 01:20:32;;;;;;;14.80;2.88;;;;;;;;;;2220583;26;20016;-61
2024/04/12 01:21:51;;;;;;;9.63;2.15;;;;;;;;;;2221647;26;20020;-64
2024/04/12 01:23:15;;;;;;;10.07;2.22;;;;;;;;;;2221099;26;20020;-61
2024/04/12 01:24:37;;;;;;;13.80;2.85;;;;;;;;;;2221721;26;20015;-62
2024/04/12 01:25:56;;;;;;;11.23;2.13;;;;;;;;;;2221485;26;20455;-63
2024/04/12 01:27:15;;;;;;;13.93;3.08;;;;;;;;;;2221756;26;20003;-62
2024/04/12 01:28:35;;;;;;;16.33;3.30;;;;;;;;;;2219988;26;20020;-61
2024/04/12 01:29:56;;;;;;;12.48;2.75;;;;;;;;;;2220183;26;20004;-61
2024/04/12 01:31:15;;;;;;;12.93;2.75;;;;;;;;;;2221429;26;20345;-61
2024/04/12 01:32:34;;;;;;;10.52;2.08;;;;;;;;;;2221736;26;20016;-63
2024/04/12 01:33:54;;;;;;;11.57;2.88;;;;;;;;;;2221210;26;20004;-61
2024/04/12 01:35:13;;;;;;;10.98;2.33;;;;;;;;;;2222608;26;20012;-61
2024/04/12 01:36:33;;;;;;;11.40;3.00;;;;;;;;;;2219736;26;20529;-61
2024/04/12 01:37:52;;;;;;;15.05;2.50;;;;;;;;;;2225238;26;20003;-61
2024/04/12 01:39:11;;;;;;;10.50;2.85;;;;;;;;;;2223314;26;20000;-62
2024/04/12 01:40:35;;;;;;;14.68;3.30;;;;;;;;;;2221560;26;20352;-62
2024/04/12 01:41:55;;;;;;;9.90;2.58;;;;;;;;;;2220509;26;20008;-62
2024/04/12 01:43:14;;;;;;;14.55;3.20;;;;;;;;;;2220616;26;20016;-62
2024/04/12 01:44:33;;;;;;;14.88;2.67;;;;;;;;;;2221805;26;20146;-61
2024/04/12 01:45:54;;;;;;;14.65;3.05;;;;;;;;;;2220325;26;20020;-61
2024/04/12 01:47:14;;;;;;;12.02;2.85;;;;;;;;;;2220656;26;20000;-61
2024/04/12 01:48:36;;;;;;;10.73;2.60;;;;;;;;;;2221100;26;20023;-60
2024/04/12 01:49:56;;;;;;;11.52;3.28;;;;;;;;;;2222070;26;20008;-62
2024/04/12 01:51:15;;;;;;;17.88;3.17;;;;;;;;;;2220482;26;20352;-62
2024/04/12 01:52:50;;;;;;;12.57;2.72;;;;;;;;;;2227743;26;19999;-61
2024/04/12 01:54:17;;;;;;;21.50;3.47;;;;;;;;;;2226896;26;20038;-61
2024/04/12 01:55:40;;;;;;;17.70;3.40;;;;;;;;;;2222454;26;20011;-61
2024/04/12 01:57:03;;;;;;;17.02;2.83;;;;;;;;;;2223078;26;20003;-61
2024/04/12 01:58:22;;;;;;;13.65;2.85;;;;;;;;;;2220738;26;20007;-61
2024/04/12 01:59:43;;;;;;;18.67;2.95;;;;;;;;;;2222543;26;20012;-60
2024/04/12 02:01:02;;;;;;;13.60;3.40;;;;;;;;;;2221699;26;20032;-62
2024/04/12 02:02:21;;;;;;;13.50;3.10;;;;;;;;;;2220707;26;20005;-60
2024/04/12 02:03:40;;;;;;;14.70;2.95;;;;;;;;;;2223531;26;20004;-60
2024/04/12 02:04:59;;;;;;;13.10;3.42;;;;;;;;;;2221949;26;20003;-61
2024/04/12 02:06:18;;;;;;;14.35;2.70;;;;;;;;;;2226037;26;20011;-61
2024/04/12 02:07:39;;;;;;;14.75;3.63;;;;;;;;;;2223443;26;20004;-60
2024/04/12 02:08:58;;;;;;;12.65;3.70;;;;;;;;;;2221026;26;20063;-63
2024/04/12 02:10:22;;;;;;;15.90;2.78;;;;;;;;;;2219786;26;20015;-61
2024/04/12 02:11:47;;;;;;;16.00;2.88;;;;;;;;;;2220032;26;20028;-61
2024/04/12 02:13:10;;;;;;;13.88;2.90;;;;;;;;;;2221007;26;20406;-60
2024/04/12 02:14:29;;;;;;;14.82;2.92;;;;;;;;;;2222173;26;20021;-61
2024/04/12 02:15:51;;;;;;;16.83;3.30;;;;;;;;;;2221778;26;20015;-61
2024/04/12 02:17:11;;;;;;;15.57;3.25;;;;;;;;;;2222659;26;20015;-61
2024/04/12 02:18:33;;;;;;;20.30;3.80;;;;;;;;;;2221930;26;20004;-61
2024/04/12 02:19:52;;;;;;;19.05;3.40;;;;;;;;;;2223982;26;20448;-61
2024/04/12 02:21:11;;;;;;;17.65;3.25;;;;;;;;;;2221844;26;20633;-60
2024/04/12 02:22:30;;;;;;;20.88;4.07;;;;;;;;;;2223854;26;20110;-60
2024/04/12 02:23:52;;;;;;;17.90;3.28;;;;;;;;;;2223998;26;20383;-60
2024/04/12 02:25:17;;;;;;;14.27;2.90;;;;;;;;;;2222193;26;20000;-61
2024/04/12 02:26:37;;;;;;;15.88;3.97;;;;;;;;;;2222048;26;20086;-61
2024/04/12 02:27:56;;;;;;;15.38;3.00;;;;;;;;;;2220096;26;20082;-61
2024/04/12 02:29:14;;;;;;;16.90;3.03;;;;;;;;;;2222926;26;20003;-61
2024/04/12 02:30:54;;;;;;;9.93;2.50;;;;;;;;;;2223349;26;20394;-61
2024/04/12 02:32:13;;;;;;;15.82;3.00;;;;;;;;;;2218627;26;20338;-64
2024/04/12 02:33:33;;;;;;;16.02;2.92;;;;;;;;;;2221061;26;20371;-60
2024/04/12 02:34:54;;;;;;;11.43;3.15;;;;;;;;;;2221520;26;20027;-61
2024/04/12 02:36:18;;;;;;;16.83;2.63;;;;;;;;;;2223232;26;21067;-62
2024/04/12 02:37:37;;;;;;;14.13;2.92;;;;;;;;;;2224330;26;20020;-61
2024/04/12 02:38:57;;;;;;;11.43;2.30;;;;;;;;;;2223676;26;20015;-61
2024/04/12 02:40:16;;;;;;;20.60;3.33;;;;;;;;;;2222097;26;20000;-61
2024/04/12 02:41:37;;;;;;;11.15;3.53;;;;;;;;;;2221898;26;20016;-61
2024/04/12 02:42:58;;;;;;;14.73;2.90;;;;;;;;;;2224424;26;20015;-61
2024/04/12 02:44:17;;;;;;;12.88;2.70;;;;;;;;;;2221878;26;20012;-61
2024/04/12 02:45:36;;;;;;;17.40;3.42;;;;;;;;;;2220119;26;20060;-61
2024/04/12 02:46:58;;;;;;;17.67;3.35;;;;;;;;;;2221977;26;20019;-61
2024/04/12 02:48:19;;;;;;;18.50;3.22;;;;;;;;;;2222828;26;20004;-61
2024/04/12 02:49:40;;;;;;;17.67;3.08;;;;;;;;;;2223014;26;20008;-60
2024/04/12 02:51:03;;;;;;;17.08;3.08;;;;;;;;;;2223155;26;20011;-61
2024/04/12 02:52:23;;;;;;;16.15;3.17;;;;;;;;;;2222195;26;20060;-61
2024/04/12 02:53:43;;;;;;;16.75;3.92;;;;;;;;;;2224541;26;21788;-61
2024/04/12 02:55:02;;;;;;;15.50;3.42;;;;;;;;;;2223084;26;20384;-61
2024/04/12 02:56:24;;;;;;;13.43;3.47;;;;;;;;;;2223041;26;20397;-61
2024/04/12 02:57:44;;;;;;;13.75;3.00;;;;;;;;;;2221753;26;20020;-61
2024/04/12 02:59:05;;;;;;;12.68;3.03;;;;;;;;;;2221704;26;20012;-61
2024/04/12 03:00:25;;;;;;;14.48;3.58;;;;;;;;;;2222300;26;20011;-61
2024/04/12 03:01:44;;;;;;;12.45;3.03;;;;;;;;;;2221896;26;20004;-61
2024/04/12 03:03:04;;;;;;;13.32;2.60;;;;;;;;;;2221929;26;20219;-61
2024/04/12 03:04:23;;;;;;;20.58;3.55;;;;;;;;;;2223798;26;20027;-61
2024/04/12 03:05:43;;;;;;;14.05;3.00;;;;;;;;;;2222074;26;20469;-61
2024/04/12 03:07:09;;;;;;;17.45;2.92;;;;;;;;;;2226467;26;20011;-61
2024/04/12 03:08:32;;;;;;;11.18;3.30;;;;;;;;;;2223015;26;20008;-61
2024/04/12 03:09:53;;;;;;;13.18;3.20;;;;;;;;;;2222218;26;20008;-62
2024/04/12 03:11:22;;;;;;;15.55;3.20;;;;;;;;;;2222661;26;20008;-64
2024/04/12 03:12:43;;;;;;;21.25;3.60;;;;;;;;;;2222022;26;20715;-63
2024/04/12 03:14:03;;;;;;;16.23;3.08;;;;;;;;;;2223368;26;20004;-61
2024/04/12 03:15:24;;;;;;;18.88;3.40;;;;;;;;;;2221025;26;20012;-61
2024/04/12 03:16:46;;;;;;;18.40;3.53;;;;;;;;;;2222094;26;20436;-61
2024/04/12 03:18:06;;;;;;;12.05;3.40;;;;;;;;;;2222189;26;20008;-61
2024/04/12 03:19:27;;;;;;;13.57;3.15;;;;;;;;;;2224017;26;20080;-61
2024/04/12 03:20:47;;;;;;;14.85;3.03;;;;;;;;;;2221207;26;20015;-61
2024/04/12 03:22:06;;;;;;;14.57;3.35;;;;;;;;;;2222467;26;20011;-61
2024/04/12 03:23:25;;;;;;;14.35;3.40;;;;;;;;;;2222499;26;20011;-61
2024/04/12 03:24:44;;;;;;;20.88;3.92;;;;;;;;;;2221107;26;20047;-61
2024/04/12 03:26:03;;;;;;;13.63;3.67;;;;;;;;;;2223436;26;20012;-61
2024/04/12 03:27:22;;;;;;;16.55;3.47;;;;;;;;;;2222086;26;20840;-61
2024/04/12 03:28:41;;;;;;;22.58;3.90;;;;;;;;;;2222918;26;20324;-61
2024/04/12 03:30:01;;;;;;;17.58;4.13;;;;;;;;;;2221991;26;20028;-61
2024/04/12 03:31:20;;;;;;;17.98;3.90;;;;;;;;;;2221967;26;20008;-62
2024/04/12 03:32:44;;;;;;;23.08;3.88;;;;;;;;;;2222398;26;20012;-61
2024/04/12 03:34:06;;;;;;;16.70;3.47;;;;;;;;;;2222654;26;20000;-62
2024/04/12 03:35:25;;;;;;;13.63;3.30;;;;;;;;;;2219877;26;20008;-62
2024/04/12 03:39:45;;;;;;;16.65;3.47;;;;;;;;;;2222574;26;20042;-62
2024/04/12 03:41:04;;;;;;;12.18;3.25;;;;;;;;;;2223061;26;20054;-61
2024/04/12 03:42:28;;;;;;;16.60;3.47;;;;;;;;;;2222091;26;20039;-62
2024/04/12 03:43:47;;;;;;;21.50;3.25;;;;;;;;;;2222665;26;20042;-62
2024/04/12 03:45:12;;;;;;;18.50;3.53;;;;;;;;;;2221534;26;20430;-62
2024/04/12 03:46:31;;;;;;;21.45;3.50;;;;;;;;;;2221228;26;20000;-61
2024/04/12 03:47:54;;;;;;;18.77;3.67;;;;;;;;;;2222066;26;20003;-61
2024/04/12 03:49:15;;;;;;;13.10;3.38;;;;;;;;;;2223112;26;20051;-61
2024/04/12 03:50:35;;;;;;;16.45;3.13;;;;;;;;;;2221433;26;21316;-61
2024/04/12 03:51:57;;;;;;;15.20;2.83;;;;;;;;;;2220752;26;20012;-61
2024/04/12 03:53:17;;;;;;;14.20;2.90;;;;;;;;;;2221404;26;20011;-61
2024/04/12 03:54:36;;;;;;;15.35;3.10;;;;;;;;;;2222264;26;19999;-61
2024/04/12 03:55:56;;;;;;;11.63;3.13;;;;;;;;;;2221962;26;20004;-61
2024/04/12 03:57:15;;;;;;;15.60;3.40;;;;;;;;;;2221469;26;20007;-61
2024/04/12 03:58:34;;;;;;;14.50;2.70;;;;;;;;;;2224610;26;20011;-62
2024/04/12 03:59:57;;;;;;;13.88;3.08;;;;;;;;;;2223362;26;20011;-62
2024/04/12 04:01:16;;;;;;;16.33;3.47;;;;;;;;;;2226951;26;19996;-62
2024/04/12 04:02:35;;;;;;;16.42;3.83;;;;;;;;;;2218077;26;20011;-61
2024/04/12 04:03:57;;;;;;;12.50;3.33;;;;;;;;;;2217587;26;20007;-61
2024/04/12 04:05:16;;;;;;;16.67;3.47;;;;;;;;;;2221454;26;20008;-62
2024/04/12 04:06:36;;;;;;;20.33;3.42;;;;;;;;;;2223274;26;20352;-62
2024/04/12 04:07:55;;;;;;;15.55;3.42;;;;;;;;;;2223677;26;20451;-62
2024/04/12 04:09:14;;;;;;;21.50;3.42;;;;;;;;;;2225320;26;20004;-62
2024/04/12 04:10:34;;;;;;;17.38;3.13;;;;;;;;;;2221394;26;20008;-62
2024/04/12 04:11:54;;;;;;;16.25;3.42;;;;;;;;;;2220881;26;20012;-62
2024/04/12 04:13:15;;;;;;;20.27;3.72;;;;;;;;;;2222980;26;20012;-61
2024/04/12 04:14:36;;;;;;;10.95;2.80;;;;;;;;;;2223558;26;20023;-62
2024/04/12 04:15:55;;;;;;;17.00;3.63;;;;;;;;;;2220487;26;20023;-62
2024/04/12 04:17:15;;;;;;;23.45;4.22;;;;;;;;;;2222172;26;20008;-61
2024/04/12 04:18:35;;;;;;;16.95;3.58;;;;;;;;;;2221479;26;20055;-61
2024/04/12 04:19:54;;;;;;;24.10;4.10;;;;;;;;;;2223053;26;20004;-62
2024/04/12 04:21:13;;;;;;;17.15;4.20;;;;;;;;;;2221027;26;20473;-64
2024/04/12 04:23:58;;;;;;;13.02;3.33;;;;;;;;;;2222434;26;20015;-62
2024/04/12 04:25:19;;;;;;;14.38;2.53;;;;;;;;;;2222396;26;20007;-61
2024/04/12 04:26:38;;;;;;;24.20;4.00;;;;;;;;;;2219576;26;20016;-62
2024/04/12 04:27:57;;;;;;;23.92;3.80;;;;;;;;;;2221310;26;20020;-62
2024/04/12 04:29:16;;;;;;;17.63;3.78;;;;;;;;;;2227714;26;20477;-62
2024/04/12 04:30:35;;;;;;;16.35;3.05;;;;;;;;;;2224970;26;20007;-62
2024/04/12 04:31:56;;;;;;;14.23;3.22;;;;;;;;;;2219413;26;20039;-62
2024/04/12 04:33:15;;;;;;;23.05;3.72;;;;;;;;;;2220040;26;19997;-62
2024/04/12 04:34:34;;;;;;;16.10;4.03;;;;;;;;;;2224072;26;20016;-62
2024/04/12 04:35:54;;;;;;;18.05;4.18;;;;;;;;;;2221283;26;20012;-61
2024/04/12 04:37:14;;;;;;;19.67;3.92;;;;;;;;;;2221338;26;20007;-62
2024/04/12 04:38:33;;;;;;;20.15;3.88;;;;;;;;;;2235737;26;20004;-62
2024/04/12 04:39:52;;;;;;;24.08;5.10;;;;;;;;;;2228034;26;20008;-62
2024/04/12 04:41:12;;;;;;;20.55;3.42;;;;;;;;;;2220799;26;20004;-62
2024/04/12 04:42:31;;;;;;;18.83;3.80;;;;;;;;;;2234231;26;20871;-62
2024/04/12 04:43:49;;;;;;;17.92;4.15;;;;;;;;;;2226926;26;20007;-62
2024/04/12 04:45:08;;;;;;;18.70;3.30;;;;;;;;;;2220047;26;20008;-62
2024/04/12 04:46:27;;;;;;;22.90;4.53;;;;;;;;;;2228228;26;20465;-62
2024/04/12 04:47:47;;;;;;;15.63;3.30;;;;;;;;;;2227962;26;20005;-62
2024/04/12 04:49:06;;;;;;;21.17;3.97;;;;;;;;;;2229410;26;20012;-62
2024/04/12 04:50:25;;;;;;;19.20;4.88;;;;;;;;;;2227464;26;20042;-62
2024/04/12 04:51:51;;;;;;;23.90;4.05;;;;;;;;;;2229528;26;20024;-62
2024/04/12 04:53:11;;;;;;;18.83;3.58;;;;;;;;;;2229202;26;20008;-61
2024/04/12 04:54:30;;;;;;;18.48;3.28;;;;;;;;;;2230058;26;20039;-61
2024/04/12 04:55:49;;;;;;;17.67;3.85;;;;;;;;;;2229114;26;20360;-62
2024/04/12 04:57:08;;;;;;;19.38;4.25;;;;;;;;;;2227541;26;20048;-62
2024/04/12 04:58:28;;;;;;;17.00;3.30;;;;;;;;;;2229475;26;20462;-62
2024/04/12 04:59:48;;;;;;;18.02;3.85;;;;;;;;;;2236953;26;20011;-61
2024/04/12 05:01:11;;;;;;;20.67;4.03;;;;;;;;;;2240301;26;20492;-62
2024/04/12 05:02:34;;;;;;;18.00;3.75;;;;;;;;;;2232542;26;20015;-61
2024/04/12 05:03:56;;;;;;;27.98;4.03;;;;;;;;;;2227111;26;20012;-63
2024/04/12 05:05:22;;;;;;;18.55;3.97;;;;;;;;;;2227452;26;20482;-61
2024/04/12 05:06:42;;;;;;;18.80;3.78;;;;;;;;;;2228755;26;20012;-62
2024/04/12 05:08:05;;;;;;;13.20;3.15;;;;;;;;;;2229333;26;20008;-61
2024/04/12 05:09:27;;;;;;;19.33;3.80;;;;;;;;;;2228727;26;20020;-62
2024/04/12 05:10:46;;;;;;;23.58;3.95;;;;;;;;;;2227907;26;20009;-65
2024/04/12 05:12:05;;;;;;;19.92;3.92;;;;;;;;;;2230021;26;20012;-62
2024/04/12 05:13:25;;;;;;;15.18;3.22;;;;;;;;;;2228289;26;20019;-61
2024/04/12 05:14:46;;;;;;;20.63;5.30;;;;;;;;;;2227108;26;20260;-61
2024/04/12 05:16:10;;;;;;;20.55;4.13;;;;;;;;;;2226544;26;20023;-61
2024/04/12 05:17:29;;;;;;;22.48;3.95;;;;;;;;;;2225352;26;20007;-62
2024/04/12 05:18:48;;;;;;;14.32;3.80;;;;;;;;;;2225571;26;20464;-62
2024/04/12 05:20:20;;;;;;;14.52;3.72;;;;;;;;;;2226338;26;20057;-61
2024/04/12 05:21:41;;;;;;;14.60;3.63;;;;;;;;;;2228814;26;20461;-61
2024/04/12 05:23:00;;;;;;;17.85;3.55;;;;;;;;;;2231206;26;20008;-61
2024/04/12 05:24:19;;;;;;;15.32;2.90;;;;;;;;;;2228363;26;20008;-62
2024/04/12 05:25:49;;;;;;;15.50;3.00;;;;;;;;;;2226748;26;20020;-64
2024/04/12 05:27:10;;;;;;;16.02;3.90;;;;;;;;;;2228776;26;20024;-61
2024/04/12 05:28:30;;;;;;;20.55;3.72;;;;;;;;;;2220252;26;20477;-62
2024/04/12 05:29:50;;;;;;;21.58;3.78;;;;;;;;;;2214880;26;20012;-62
2024/04/12 05:31:12;;;;;;;17.48;3.88;;;;;;;;;;2230422;26;20015;-62
2024/04/12 05:32:32;;;;;;;25.10;4.00;;;;;;;;;;2229678;26;20012;-62
2024/04/12 05:33:55;;;;;;;18.88;4.15;;;;;;;;;;2229179;26;21080;-62
2024/04/12 05:35:15;;;;;;;18.08;3.88;;;;;;;;;;2230458;26;20365;-61
2024/04/12 05:36:36;;;;;;;21.08;3.65;;;;;;;;;;2229322;26;20015;-62
2024/04/12 05:37:55;;;;;;;29.55;4.70;;;;;;;;;;2229929;26;20007;-61
2024/04/12 05:39:14;;;;;;;16.73;3.60;;;;;;;;;;2229021;26;20008;-61
2024/04/12 05:40:46;;;;;;;15.43;4.05;;;;;;;;;;2228028;26;20369;-62
2024/04/12 05:42:06;;;;;;;27.05;4.32;;;;;;;;;;2231150;26;20069;-61
2024/04/12 05:43:25;;;;;;;20.30;4.57;;;;;;;;;;2228537;26;20012;-62
2024/04/12 05:44:45;;;;;;;22.35;4.30;;;;;;;;;;2229223;26;20016;-62
2024/04/12 05:46:05;;;;;;;20.00;3.95;;;;;;;;;;2223665;26;20605;-62
2024/04/12 05:47:24;;;;;;;37.83;5.03;;;;;;;;;;2222024;26;20007;-62
2024/04/12 05:48:44;;;;;;;23.98;3.72;;;;;;;;;;2221966;26;20007;-62
2024/04/12 05:50:03;;;;;;;32.40;4.95;;;;;;;;;;2220350;26;20456;-62
2024/04/12 05:51:23;;;;;;;25.55;4.30;;;;;;;;;;2221106;26;20442;-62
2024/04/12 05:52:42;;;;;;;19.25;4.05;;;;;;;;;;2219154;26;20139;-62
2024/04/12 05:54:10;;;;;;;20.38;3.95;;;;;;;;;;2224311;26;20867;-62
2024/04/12 05:55:30;;;;;;;21.65;4.55;;;;;;;;;;2221085;26;20019;-63
2024/04/12 05:56:51;;;;;;;23.00;4.25;;;;;;;;;;2222080;26;20015;-62
2024/04/12 05:58:13;;;;;;;19.40;3.97;;;;;;;;;;2220060;26;20004;-62
2024/04/12 05:59:33;;;;;;;19.98;3.85;;;;;;;;;;2222975;26;20020;-62
2024/04/12 06:00:52;;;;;;;20.17;4.15;;;;;;;;;;2219551;26;20012;-62
2024/04/12 06:02:14;;;;;;;18.80;3.50;;;;;;;;;;2219388;26;20023;-62
2024/04/12 06:03:34;;;;;;;19.25;3.78;;;;;;;;;;2220495;26;20024;-63
2024/04/12 06:04:54;;;;;;;20.75;3.88;;;;;;;;;;2219754;26;20004;-61
2024/04/12 06:06:15;;;;;;;20.08;3.25;;;;;;;;;;2220853;26;20017;-61
2024/04/12 06:07:35;;;;;;;19.73;4.03;;;;;;;;;;2220743;26;20035;-61
2024/04/12 06:08:54;;;;;;;22.83;3.78;;;;;;;;;;2221019;26;20023;-61
2024/04/12 06:10:17;;;;;;;18.33;3.40;;;;;;;;;;2221558;26;20020;-61
2024/04/12 06:11:37;;;;;;;23.42;3.88;;;;;;;;;;2220035;26;20008;-61
2024/04/12 06:12:57;;;;;;;24.48;4.32;;;;;;;;;;2220115;26;20012;-61
2024/04/12 06:14:16;;;;;;;20.17;4.05;;;;;;;;;;2223031;26;20015;-61
2024/04/12 06:15:36;;;;;;;14.07;3.20;;;;;;;;;;2222360;26;20008;-61
2024/04/12 06:16:55;;;;;;;17.13;3.25;;;;;;;;;;2220982;26;20016;-61
2024/04/12 06:18:16;;;;;;;23.73;4.25;;;;;;;;;;2220804;26;20007;-61
2024/04/12 06:19:37;;;;;;;16.65;3.55;;;;;;;;;;2220745;26;20003;-61
2024/04/12 06:20:56;;;;;;;19.42;3.55;;;;;;;;;;2223153;26;20433;-61
2024/04/12 06:22:15;;;;;;;21.63;4.07;;;;;;;;;;2222943;26;20469;-61
2024/04/12 06:23:37;;;;;;;16.52;3.53;;;;;;;;;;2222384;26;20012;-61
2024/04/12 06:25:01;;;;;;;18.33;3.17;;;;;;;;;;2219938;26;20003;-61
2024/04/12 06:26:22;;;;;;;20.60;4.32;;;;;;;;;;2220227;26;20021;-61
2024/04/12 06:27:42;;;;;;;14.00;3.17;;;;;;;;;;2219312;26;20012;-61
2024/04/12 06:29:05;;;;;;;19.40;4.07;;;;;;;;;;2229819;26;19999;-61
2024/04/12 06:30:24;;;;;;;21.90;3.92;;;;;;;;;;2221942;26;20004;-61
2024/04/12 06:31:46;;;;;;;29.42;4.22;;;;;;;;;;2223004;26;20008;-61
2024/04/12 06:33:08;;;;;;;23.77;4.00;;;;;;;;;;2221605;26;20011;-62
2024/04/12 06:34:27;;;;;;;21.13;3.63;;;;;;;;;;2223171;26;20033;-62
2024/04/12 06:35:49;;;;;;;19.13;4.00;;;;;;;;;;2221905;26;20229;-61
2024/04/12 06:37:08;;;;;;;19.13;4.10;;;;;;;;;;2219757;26;20004;-61
2024/04/12 06:38:29;;;;;;;20.45;4.13;;;;;;;;;;2220408;26;20007;-61
2024/04/12 06:39:55;;;;;;;17.88;3.80;;;;;;;;;;2221621;26;20008;-61
2024/04/12 06:41:15;;;;;;;24.30;3.83;;;;;;;;;;2221763;26;20008;-61
2024/04/12 06:42:35;;;;;;;13.98;3.45;;;;;;;;;;2221720;26;20441;-61
2024/04/12 06:43:54;;;;;;;16.50;3.53;;;;;;;;;;2222035;26;20456;-61
2024/04/12 06:45:15;;;;;;;19.48;3.90;;;;;;;;;;2219988;26;20008;-61
2024/04/12 06:46:35;;;;;;;23.38;3.75;;;;;;;;;;2220865;26;20015;-61
2024/04/12 06:47:56;;;;;;;16.25;3.35;;;;;;;;;;2221447;26;20013;-61
2024/04/12 06:49:15;;;;;;;23.83;3.78;;;;;;;;;;2225915;26;20000;-61
2024/04/12 06:50:36;;;;;;;23.80;3.67;;;;;;;;;;2221923;26;20051;-61
2024/04/12 06:52:10;;;;;;;21.33;4.18;;;;;;;;;;2219658;26;20527;-61
2024/04/12 06:53:31;;;;;;;25.98;4.18;;;;;;;;;;2220236;26;20008;-61
2024/04/12 06:54:52;;;;;;;24.17;4.95;;;;;;;;;;2221381;26;20020;-61
2024/04/12 06:56:15;;;;;;;19.80;4.10;;;;;;;;;;2224527;26;20000;-61
2024/04/12 06:57:34;;;;;;;15.02;3.83;;;;;;;;;;2221659;26;20008;-61
2024/04/12 06:58:54;;;;;;;14.18;2.65;;;;;;;;;;2220315;26;20003;-62
2024/04/12 07:00:20;;;;;;;17.92;3.60;;;;;;;;;;2219942;26;20434;-62
2024/04/12 07:01:39;;;;;;;17.45;3.65;;;;;;;;;;2222314;26;20001;-62
2024/04/12 07:02:59;;;;;;;14.73;3.60;;;;;;;;;;2220572;26;20011;-61
2024/04/12 07:04:19;;;;;;;20.65;3.90;;;;;;;;;;2223286;26;20000;-62
2024/04/12 07:05:39;;;;;;;23.00;4.25;;;;;;;;;;2220531;26;20008;-61
2024/04/12 07:07:00;;;;;;;23.48;3.97;;;;;;;;;;2221197;26;20007;-61
2024/04/12 07:08:21;;;;;;;14.65;3.20;;;;;;;;;;2222831;26;20028;-62
2024/04/12 07:09:45;;;;;;;14.90;3.90;;;;;;;;;;2222320;26;20044;-62
2024/04/12 07:11:07;;;;;;;17.50;3.60;;;;;;;;;;2222318;26;20012;-63
2024/04/12 07:12:32;;;;;;;19.90;3.20;;;;;;;;;;2235954;26;20411;-63
2024/04/12 07:13:53;;;;;;;16.20;3.25;;;;;;;;;;2227443;26;20534;-63
2024/04/12 07:15:12;;;;;;;19.77;4.20;;;;;;;;;;2222064;26;20019;-63
2024/04/12 07:16:35;;;;;;;16.67;3.20;;;;;;;;;;2236477;26;20007;-63
2024/04/12 07:17:58;;;;;;;21.05;3.55;;;;;;;;;;2236295;26;20521;-63
2024/04/12 07:19:18;;;;;;;22.50;3.85;;;;;;;;;;2227502;26;20394;-63
2024/04/12 07:20:40;;;;;;;13.73;3.00;;;;;;;;;;2222964;26;20007;-63
2024/04/12 07:21:59;;;;;;;18.75;3.30;;;;;;;;;;2222815;26;20003;-63
2024/04/12 07:23:18;;;;;;;16.08;3.17;;;;;;;;;;2221399;26;20377;-63
2024/04/12 07:24:38;;;;;;;16.35;3.50;;;;;;;;;;2227282;26;20007;-63
2024/04/12 07:25:57;;;;;;;17.95;3.13;;;;;;;;;;2224674;26;20460;-63
2024/04/12 07:27:17;;;;;;;20.73;3.78;;;;;;;;;;2221567;26;19996;-63
2024/04/12 07:28:36;;;;;;;19.35;3.97;;;;;;;;;;2223929;26;20007;-63
2024/04/12 07:29:55;;;;;;;23.02;3.80;;;;;;;;;;2221670;26;20016;-63
2024/04/12 07:31:15;;;;;;;22.13;3.92;;;;;;;;;;2221075;26;20363;-66
2024/04/12 07:32:35;;;;;;;17.00;3.47;;;;;;;;;;2222758;26;20012;-63
2024/04/12 07:33:59;;;;;;;22.30;3.97;;;;;;;;;;2222957;26;20497;-63
2024/04/12 07:35:28;;;;;;;18.50;3.47;;;;;;;;;;2221374;26;20907;-63
2024/04/12 07:36:47;;;;;;;18.92;3.85;;;;;;;;;;2222244;26;20004;-63
2024/04/12 07:38:08;;;;;;;13.00;2.72;;;;;;;;;;2225981;26;20364;-63
2024/04/12 07:39:30;;;;;;;16.75;3.92;;;;;;;;;;2227406;26;20008;-63
2024/04/12 07:40:52;;;;;;;17.63;3.75;;;;;;;;;;2222653;26;20015;-66
2024/04/12 07:42:11;;;;;;;17.85;3.67;;;;;;;;;;2222569;26;20012;-63
2024/04/12 07:43:41;;;;;;;16.90;3.58;;;;;;;;;;2221177;26;20004;-62
2024/04/12 07:45:06;;;;;;;16.80;4.00;;;;;;;;;;2222519;26;20012;-63
2024/04/12 07:46:33;;;;;;;12.98;3.08;;;;;;;;;;2219290;26;20004;-63
2024/04/12 07:47:53;;;;;;;15.38;3.55;;;;;;;;;;2224236;26;20372;-63
2024/04/12 07:49:13;;;;;;;14.73;3.28;;;;;;;;;;2224991;26;20019;-63
2024/04/12 07:50:33;;;;;;;18.33;3.70;;;;;;;;;;2220971;26;20063;-63
2024/04/12 07:51:52;;;;;;;13.52;3.72;;;;;;;;;;2222488;26;20003;-63
2024/04/12 07:53:34;;;;;;;21.38;3.75;;;;;;;;;;2220765;26;20427;-63
2024/04/12 07:54:53;;;;;;;15.38;3.35;;;;;;;;;;2223090;26;20012;-63
2024/04/12 07:56:16;;;;;;;17.30;3.67;;;;;;;;;;2222999;26;19999;-63
2024/04/12 07:57:36;;;;;;;22.88;3.30;;;;;;;;;;2222863;26;20031;-63
2024/04/12 07:59:10;;;;;;;15.20;3.10;;;;;;;;;;2223418;26;20000;-63
2024/04/12 08:00:36;;;;;;;15.27;2.80;;;;;;;;;;2221824;26;20007;-63
2024/04/12 08:01:57;;;;;;;20.98;3.20;;;;;;;;;;2222305;26;20039;-63
2024/04/12 08:03:16;;;;;;;20.52;3.42;;;;;;;;;;2222047;26;20008;-63
2024/04/12 08:04:38;;;;;;;22.50;3.88;;;;;;;;;;2223562;26;20020;-63